Terminal Aerodrome Forecast
Issued by NWS

Current Version | Previous Version | Text Only | Print | Product List | Glossary On
Versions: 1 2 3 4 5 6 7 8 9 10 11 12 13 14 15 16 17 18
280 FTUS41 KBTV 202340 TAFMPV TAF KMPV 202340Z 2100/2124 30008KT P6SM OVC050 FM211500 31010KT P6SM SCT050=

USA.gov is the U.S. government's official web portal to all federal, state and local government web resources and services.